VNKT Airport Information

Runway Information
Runway 02 Length 10007 ft width 148 ft
Elevation 4313 ft Threshold 0 ft Heading 22
Runway 20 Length 10007 ft Width 148 ft
Elevation 4387 ft Threshold 400 ft Heading 202
Airport Frequencies
Type APP Name KATHMANDU Frequency 120.6 MHZ
Type ATIS Name KATHMANDU Frequency 112.3 MHZ
Type GND Name KATHMANDU Frequency 121.9 MHZ
Type RDO Name KATHMANDU Frequency 292.3 MHZ
Type TWR Name KATHMANDU Frequency 118.1 MHZ
Airport Navaids
Type NDB Name Kathmandu Frequency 318 KHZ
Type VOR-DME Name Kathmandu Frequency 112300 KHZ
Type NDB Name Nalinchowk Frequency 252 KHZ
Airport Weather Information & NOTAM
ADDS - METARS form results

(0043 UTC 08 March 2021)
Data provider http://aviationweather.gov/metar/data/
 
METAR text: VNKT 080020Z 04003KT 4000 BR FEW015 SCT030 BKN100 11/11 Q1019 NOSIG
Conditions at: VNKT (KATHMANDU INTL A, NP) observed 0020 UTC 08 March 2021
Temperature: 11.0°C (52°F)
Dewpoint: 11.0°C (52°F) [RH = 100%]
Pressure (altimeter): 30.09 inches Hg (1019.0 mb)
Winds: from the NE (40 degrees) at 3 MPH (3 knots; 1.5 m/s)
Visibility: 2.49 miles (4.01 km)
Ceiling: 10000 feet AGL
Clouds: few clouds at 1500 feet AGL
scattered clouds at 3000 feet AGL
broken clouds at 10000 feet AGL
Weather: BR  (mist)

METAR text: VNKT 072350Z VRB02KT 4000 BR FEW015 SCT030 BKN100 12/12 Q1018 NOSIG
Conditions at: VNKT (KATHMANDU INTL A, NP) observed 2350 UTC 07 March 2021
Temperature: 12.0°C (54°F)
Dewpoint: 12.0°C (54°F) [RH = 100%]
Pressure (altimeter): 30.06 inches Hg (1018.0 mb)
Winds: variable direction winds at 2 MPH (2 knots; 1.0 m/s)
Visibility: 2.49 miles (4.01 km)
Ceiling: 10000 feet AGL
Clouds: few clouds at 1500 feet AGL
scattered clouds at 3000 feet AGL
broken clouds at 10000 feet AGL
Weather: BR  (mist)